METAR Data
IDs: Format: Raw Decoded Include TAF

Data at: 0900 UTC 13 Aug 2022

EDDE 130850Z AUTO 04006KT 010V100 CAVOK 23/10 Q1019 NOSIG